sensor_id;sensor_type;location;lat;lon;timestamp;temperature;humidity
20881;DHT22;10600;53.096;8.802;2022-10-17T00:00:45;13.50;99.90
20881;DHT22;10600;53.096;8.802;2022-10-17T00:01:46;13.50;99.90
20881;DHT22;10600;53.096;8.802;2022-10-17T00:02:47;13.50;99.90
20881;DHT22;10600;53.096;8.802;2022-10-17T00:03:47;13.50;99.90
20881;DHT22;10600;53.096;8.802;2022-10-17T00:04:48;13.50;99.90
20881;DHT22;10600;53.096;8.802;2022-10-17T00:05:49;13.50;99.90
20881;DHT22;10600;53.096;8.802;2022-10-17T00:06:49;13.50;99.90
20881;DHT22;10600;53.096;8.802;2022-10-17T00:07:51;13.50;99.90
20881;DHT22;10600;53.096;8.802;2022-10-17T00:08:51;13.60;99.90
20881;DHT22;10600;53.096;8.802;2022-10-17T00:09:52;13.60;99.90
20881;DHT22;10600;53.096;8.802;2022-10-17T00:11:05;13.60;99.90
20881;DHT22;10600;53.096;8.802;2022-10-17T00:12:06;13.60;99.90
20881;DHT22;10600;53.096;8.802;2022-10-17T00:13:07;13.60;99.90
20881;DHT22;10600;53.096;8.802;2022-10-17T00:14:08;13.60;99.90
20881;DHT22;10600;53.096;8.802;2022-10-17T00:15:13;13.60;99.90
20881;DHT22;10600;53.096;8.802;2022-10-17T00:16:15;13.60;99.90
20881;DHT22;10600;53.096;8.802;2022-10-17T00:17:16;13.60;99.90
20881;DHT22;10600;53.096;8.802;2022-10-17T00:18:16;13.70;99.90
20881;DHT22;10600;53.096;8.802;2022-10-17T00:19:17;13.60;99.90
20881;DHT22;10600;53.096;8.802;2022-10-17T00:20:18;13.60;99.90
20881;DHT22;10600;53.096;8.802;2022-10-17T00:21:19;13.60;99.90
20881;DHT22;10600;53.096;8.802;2022-10-17T00:22:20;13.60;99.90
20881;DHT22;10600;53.096;8.802;2022-10-17T00:23:21;13.70;99.90
20881;DHT22;10600;53.096;8.802;2022-10-17T00:24:21;13.70;99.90
20881;DHT22;10600;53.096;8.802;2022-10-17T00:25:22;13.70;99.90
20881;DHT22;10600;53.096;8.802;2022-10-17T00:26:23;13.70;99.90
20881;DHT22;10600;53.096;8.802;2022-10-17T00:27:24;13.70;99.90
20881;DHT22;10600;53.096;8.802;2022-10-17T00:28:24;13.70;99.90
20881;DHT22;10600;53.096;8.802;2022-10-17T00:29:25;13.70;99.90
20881;DHT22;10600;53.096;8.802;2022-10-17T00:30:26;13.70;99.90
20881;DHT22;10600;53.096;8.802;2022-10-17T00:31:26;13.70;99.90
20881;DHT22;10600;53.096;8.802;2022-10-17T00:32:27;13.80;99.90
20881;DHT22;10600;53.096;8.802;2022-10-17T00:33:28;13.80;99.90
20881;DHT22;10600;53.096;8.802;2022-10-17T00:34:29;13.80;99.90
20881;DHT22;10600;53.096;8.802;2022-10-17T00:35:30;13.80;99.90
20881;DHT22;10600;53.096;8.802;2022-10-17T00:36:31;13.80;99.90
20881;DHT22;10600;53.096;8.802;2022-10-17T00:37:32;13.80;99.90
20881;DHT22;10600;53.096;8.802;2022-10-17T00:38:33;13.80;99.90
20881;DHT22;10600;53.096;8.802;2022-10-17T00:39:34;13.80;99.90
20881;DHT22;10600;53.096;8.802;2022-10-17T00:40:34;13.70;99.90
20881;DHT22;10600;53.096;8.802;2022-10-17T00:41:35;13.70;99.90
20881;DHT22;10600;53.096;8.802;2022-10-17T00:42:36;13.70;99.90
20881;DHT22;10600;53.096;8.802;2022-10-17T00:43:57;13.70;99.90
20881;DHT22;10600;53.096;8.802;2022-10-17T00:45:02;13.70;99.90
20881;DHT22;10600;53.096;8.802;2022-10-17T00:46:03;13.60;99.90
20881;DHT22;10600;53.096;8.802;2022-10-17T00:47:08;13.50;99.90
20881;DHT22;10600;53.096;8.802;2022-10-17T00:48:11;13.50;99.90
20881;DHT22;10600;53.096;8.802;2022-10-17T00:49:12;13.50;99.90
20881;DHT22;10600;53.096;8.802;2022-10-17T00:50:13;13.40;99.90
20881;DHT22;10600;53.096;8.802;2022-10-17T00:51:15;13.40;99.90
20881;DHT22;10600;53.096;8.802;2022-10-17T00:52:17;13.30;99.90
20881;DHT22;10600;53.096;8.802;2022-10-17T00:53:19;13.30;99.90
20881;DHT22;10600;53.096;8.802;2022-10-17T00:54:23;13.30;99.90
20881;DHT22;10600;53.096;8.802;2022-10-17T00:55:27;13.20;99.90
20881;DHT22;10600;53.096;8.802;2022-10-17T00:56:29;13.10;99.90
20881;DHT22;10600;53.096;8.802;2022-10-17T00:57:30;13.10;99.90
20881;DHT22;10600;53.096;8.802;2022-10-17T00:58:31;13.00;99.90
20881;DHT22;10600;53.096;8.802;2022-10-17T00:59:33;13.00;99.90
20881;DHT22;10600;53.096;8.802;2022-10-17T01:00:35;12.90;99.90
20881;DHT22;10600;53.096;8.802;2022-10-17T01:01:36;12.90;99.90
20881;DHT22;10600;53.096;8.802;2022-10-17T01:02:38;12.80;99.90
20881;DHT22;10600;53.096;8.802;2022-10-17T01:03:38;12.80;99.90
20881;DHT22;10600;53.096;8.802;2022-10-17T01:04:42;12.80;99.90
20881;DHT22;10600;53.096;8.802;2022-10-17T01:05:43;12.70;99.90
20881;DHT22;10600;53.096;8.802;2022-10-17T01:06:45;12.60;99.90
20881;DHT22;10600;53.096;8.802;2022-10-17T01:07:48;12.60;99.90
20881;DHT22;10600;53.096;8.802;2022-10-17T01:08:50;12.60;99.90
20881;DHT22;10600;53.096;8.802;2022-10-17T01:09:51;12.50;99.90
20881;DHT22;10600;53.096;8.802;2022-10-17T01:11:19;12.50;99.90
20881;DHT22;10600;53.096;8.802;2022-10-17T01:12:27;12.50;99.90
20881;DHT22;10600;53.096;8.802;2022-10-17T01:14:20;12.50;99.90
20881;DHT22;10600;53.096;8.802;2022-10-17T01:15:43;12.50;99.90
20881;DHT22;10600;53.096;8.802;2022-10-17T01:17:07;12.40;99.90
20881;DHT22;10600;53.096;8.802;2022-10-17T01:20:59;12.50;99.90
20881;DHT22;10600;53.096;8.802;2022-10-17T01:22:22;12.50;99.90
20881;DHT22;10600;53.096;8.802;2022-10-17T01:26:51;12.50;99.90
20881;DHT22;10600;53.096;8.802;2022-10-17T01:32:03;12.60;99.90
20881;DHT22;10600;53.096;8.802;2022-10-17T01:33:43;12.60;99.90
20881;DHT22;10600;53.096;8.802;2022-10-17T01:35:20;12.60;99.90
20881;DHT22;10600;53.096;8.802;2022-10-17T01:36:38;12.60;99.90
20881;DHT22;10600;53.096;8.802;2022-10-17T01:38:08;12.60;99.90
20881;DHT22;10600;53.096;8.802;2022-10-17T01:41:26;12.70;99.90
20881;DHT22;10600;53.096;8.802;2022-10-17T01:42:41;12.70;99.90
20881;DHT22;10600;53.096;8.802;2022-10-17T01:43:48;12.70;99.90
20881;DHT22;10600;53.096;8.802;2022-10-17T01:45:02;12.70;99.90
20881;DHT22;10600;53.096;8.802;2022-10-17T01:46:15;12.80;99.90
20881;DHT22;10600;53.096;8.802;2022-10-17T01:47:27;12.80;99.90
20881;DHT22;10600;53.096;8.802;2022-10-17T01:48:34;12.80;99.90
20881;DHT22;10600;53.096;8.802;2022-10-17T01:49:37;12.80;99.90
20881;DHT22;10600;53.096;8.802;2022-10-17T01:50:50;12.80;99.90
20881;DHT22;10600;53.096;8.802;2022-10-17T01:51:56;12.80;99.90
20881;DHT22;10600;53.096;8.802;2022-10-17T01:53:11;12.80;99.90
20881;DHT22;10600;53.096;8.802;2022-10-17T01:54:38;12.90;99.90
20881;DHT22;10600;53.096;8.802;2022-10-17T01:55:43;12.80;99.90
20881;DHT22;10600;53.096;8.802;2022-10-17T01:56:46;12.80;99.90
20881;DHT22;10600;53.096;8.802;2022-10-17T01:57:54;12.90;99.90
20881;DHT22;10600;53.096;8.802;2022-10-17T01:59:00;12.90;99.90
20881;DHT22;10600;53.096;8.802;2022-10-17T02:00:07;12.90;99.90
20881;DHT22;10600;53.096;8.802;2022-10-17T02:01:10;12.90;99.90
20881;DHT22;10600;53.096;8.802;2022-10-17T02:02:13;12.80;99.90
20881;DHT22;10600;53.096;8.802;2022-10-17T02:03:17;12.80;99.90
20881;DHT22;10600;53.096;8.802;2022-10-17T02:04:19;12.80;99.90
20881;DHT22;10600;53.096;8.802;2022-10-17T02:05:25;12.90;99.90
20881;DHT22;10600;53.096;8.802;2022-10-17T02:06:27;12.80;99.90
20881;DHT22;10600;53.096;8.802;2022-10-17T02:07:27;12.80;99.90
20881;DHT22;10600;53.096;8.802;2022-10-17T02:08:40;12.80;99.90
20881;DHT22;10600;53.096;8.802;2022-10-17T02:09:41;12.80;99.90
20881;DHT22;10600;53.096;8.802;2022-10-17T02:10:58;12.80;99.90
20881;DHT22;10600;53.096;8.802;2022-10-17T02:18:42;12.70;99.90
20881;DHT22;10600;53.096;8.802;2022-10-17T02:20:39;12.70;99.90
20881;DHT22;10600;53.096;8.802;2022-10-17T02:24:01;12.70;99.90
20881;DHT22;10600;53.096;8.802;2022-10-17T02:26:40;12.70;99.90
20881;DHT22;10600;53.096;8.802;2022-10-17T02:29:23;12.80;99.90
20881;DHT22;10600;53.096;8.802;2022-10-17T02:30:34;12.80;99.90
20881;DHT22;10600;53.096;8.802;2022-10-17T02:31:47;12.80;99.90
20881;DHT22;10600;53.096;8.802;2022-10-17T02:32:56;12.80;99.90
20881;DHT22;10600;53.096;8.802;2022-10-17T02:34:01;12.80;99.90
20881;DHT22;10600;53.096;8.802;2022-10-17T02:35:07;12.70;99.90
20881;DHT22;10600;53.096;8.802;2022-10-17T02:36:13;12.70;99.90
20881;DHT22;10600;53.096;8.802;2022-10-17T02:37:20;12.70;99.90
20881;DHT22;10600;53.096;8.802;2022-10-17T02:38:23;12.70;99.90
20881;DHT22;10600;53.096;8.802;2022-10-17T02:39:26;12.70;99.90
20881;DHT22;10600;53.096;8.802;2022-10-17T02:40:28;12.70;99.90
20881;DHT22;10600;53.096;8.802;2022-10-17T02:41:29;12.70;99.90
20881;DHT22;10600;53.096;8.802;2022-10-17T02:42:31;12.70;99.90
20881;DHT22;10600;53.096;8.802;2022-10-17T02:43:33;12.70;99.90
20881;DHT22;10600;53.096;8.802;2022-10-17T02:44:37;12.70;99.90
20881;DHT22;10600;53.096;8.802;2022-10-17T02:45:39;12.70;99.90
20881;DHT22;10600;53.096;8.802;2022-10-17T02:46:41;12.70;99.90
20881;DHT22;10600;53.096;8.802;2022-10-17T02:47:53;12.70;99.90
20881;DHT22;10600;53.096;8.802;2022-10-17T02:49:17;12.70;99.90
20881;DHT22;10600;53.096;8.802;2022-10-17T02:50:17;12.70;99.90
20881;DHT22;10600;53.096;8.802;2022-10-17T02:51:32;12.70;99.90
20881;DHT22;10600;53.096;8.802;2022-10-17T02:52:39;12.60;99.90
20881;DHT22;10600;53.096;8.802;2022-10-17T02:55:28;12.60;99.90
20881;DHT22;10600;53.096;8.802;2022-10-17T02:56:34;12.60;99.90
20881;DHT22;10600;53.096;8.802;2022-10-17T02:57:39;12.60;99.90
20881;DHT22;10600;53.096;8.802;2022-10-17T02:58:42;12.60;99.90
20881;DHT22;10600;53.096;8.802;2022-10-17T02:59:45;12.60;99.90
20881;DHT22;10600;53.096;8.802;2022-10-17T03:00:47;12.60;99.90
20881;DHT22;10600;53.096;8.802;2022-10-17T03:01:51;12.60;99.90
20881;DHT22;10600;53.096;8.802;2022-10-17T03:02:53;12.60;99.90
20881;DHT22;10600;53.096;8.802;2022-10-17T03:04:10;12.60;99.90
20881;DHT22;10600;53.096;8.802;2022-10-17T03:05:15;12.60;99.90
20881;DHT22;10600;53.096;8.802;2022-10-17T03:06:16;12.60;99.90
20881;DHT22;10600;53.096;8.802;2022-10-17T03:07:17;12.60;99.90
20881;DHT22;10600;53.096;8.802;2022-10-17T03:08:18;12.60;99.90
20881;DHT22;10600;53.096;8.802;2022-10-17T03:09:19;12.60;99.90
20881;DHT22;10600;53.096;8.802;2022-10-17T03:10:20;12.60;99.90
20881;DHT22;10600;53.096;8.802;2022-10-17T03:11:21;12.60;99.90
20881;DHT22;10600;53.096;8.802;2022-10-17T03:12:21;12.60;99.90
20881;DHT22;10600;53.096;8.802;2022-10-17T03:13:22;12.50;99.90
20881;DHT22;10600;53.096;8.802;2022-10-17T03:14:22;12.60;99.90
20881;DHT22;10600;53.096;8.802;2022-10-17T03:15:23;12.50;99.90
20881;DHT22;10600;53.096;8.802;2022-10-17T03:16:24;12.50;99.90
20881;DHT22;10600;53.096;8.802;2022-10-17T03:17:24;12.50;99.90
20881;DHT22;10600;53.096;8.802;2022-10-17T03:18:25;12.50;99.90
20881;DHT22;10600;53.096;8.802;2022-10-17T03:19:26;12.40;99.90
20881;DHT22;10600;53.096;8.802;2022-10-17T03:20:26;12.50;99.90
20881;DHT22;10600;53.096;8.802;2022-10-17T03:21:27;12.40;99.90
20881;DHT22;10600;53.096;8.802;2022-10-17T03:22:28;12.40;99.90
20881;DHT22;10600;53.096;8.802;2022-10-17T03:23:28;12.40;99.90
20881;DHT22;10600;53.096;8.802;2022-10-17T03:24:29;12.40;99.90
20881;DHT22;10600;53.096;8.802;2022-10-17T03:25:30;12.40;99.90
20881;DHT22;10600;53.096;8.802;2022-10-17T03:26:30;12.30;99.90
20881;DHT22;10600;53.096;8.802;2022-10-17T03:27:31;12.30;99.90
20881;DHT22;10600;53.096;8.802;2022-10-17T03:28:32;12.40;99.90
20881;DHT22;10600;53.096;8.802;2022-10-17T03:29:33;12.30;99.90
20881;DHT22;10600;53.096;8.802;2022-10-17T03:30:33;12.30;99.90
20881;DHT22;10600;53.096;8.802;2022-10-17T03:31:35;12.30;99.90
20881;DHT22;10600;53.096;8.802;2022-10-17T03:32:35;12.30;99.90
20881;DHT22;10600;53.096;8.802;2022-10-17T03:33:36;12.30;99.90
20881;DHT22;10600;53.096;8.802;2022-10-17T03:34:37;12.30;99.90
20881;DHT22;10600;53.096;8.802;2022-10-17T03:35:38;12.30;99.90
20881;DHT22;10600;53.096;8.802;2022-10-17T03:36:39;12.30;99.90
20881;DHT22;10600;53.096;8.802;2022-10-17T03:37:40;12.30;99.90
20881;DHT22;10600;53.096;8.802;2022-10-17T03:38:41;12.30;99.90
20881;DHT22;10600;53.096;8.802;2022-10-17T03:39:42;12.30;99.90
20881;DHT22;10600;53.096;8.802;2022-10-17T03:40:42;12.30;99.90
20881;DHT22;10600;53.096;8.802;2022-10-17T03:41:43;12.30;99.90
20881;DHT22;10600;53.096;8.802;2022-10-17T03:42:43;12.30;99.90
20881;DHT22;10600;53.096;8.802;2022-10-17T03:43:44;12.30;99.90
20881;DHT22;10600;53.096;8.802;2022-10-17T03:44:45;12.30;99.90
20881;DHT22;10600;53.096;8.802;2022-10-17T03:45:45;12.30;99.90
20881;DHT22;10600;53.096;8.802;2022-10-17T03:46:46;12.30;99.90
20881;DHT22;10600;53.096;8.802;2022-10-17T03:47:47;12.30;99.90
20881;DHT22;10600;53.096;8.802;2022-10-17T03:48:47;12.30;99.90
20881;DHT22;10600;53.096;8.802;2022-10-17T03:49:48;12.30;99.90
20881;DHT22;10600;53.096;8.802;2022-10-17T03:50:49;12.40;99.90
20881;DHT22;10600;53.096;8.802;2022-10-17T03:51:49;12.40;99.90
20881;DHT22;10600;53.096;8.802;2022-10-17T03:52:50;12.40;99.90
20881;DHT22;10600;53.096;8.802;2022-10-17T03:53:51;12.40;99.90
20881;DHT22;10600;53.096;8.802;2022-10-17T03:54:51;12.40;99.90
20881;DHT22;10600;53.096;8.802;2022-10-17T03:55:52;12.40;99.90
20881;DHT22;10600;53.096;8.802;2022-10-17T03:56:53;12.40;99.90
20881;DHT22;10600;53.096;8.802;2022-10-17T03:57:53;12.40;99.90
20881;DHT22;10600;53.096;8.802;2022-10-17T03:58:55;12.40;99.90
20881;DHT22;10600;53.096;8.802;2022-10-17T03:59:56;12.40;99.90
20881;DHT22;10600;53.096;8.802;2022-10-17T04:00:56;12.40;99.90
20881;DHT22;10600;53.096;8.802;2022-10-17T04:01:57;12.50;99.90
20881;DHT22;10600;53.096;8.802;2022-10-17T04:02:57;12.50;99.90
20881;DHT22;10600;53.096;8.802;2022-10-17T04:03:58;12.40;99.90
20881;DHT22;10600;53.096;8.802;2022-10-17T04:04:59;12.50;99.90
20881;DHT22;10600;53.096;8.802;2022-10-17T04:06:00;12.50;99.90
20881;DHT22;10600;53.096;8.802;2022-10-17T04:07:01;12.50;99.90
20881;DHT22;10600;53.096;8.802;2022-10-17T04:08:02;12.50;99.90
20881;DHT22;10600;53.096;8.802;2022-10-17T04:09:05;12.50;99.90
20881;DHT22;10600;53.096;8.802;2022-10-17T04:10:06;12.60;99.90
20881;DHT22;10600;53.096;8.802;2022-10-17T04:11:09;12.50;99.90
20881;DHT22;10600;53.096;8.802;2022-10-17T04:12:10;12.60;99.90
20881;DHT22;10600;53.096;8.802;2022-10-17T04:13:10;12.60;99.90
20881;DHT22;10600;53.096;8.802;2022-10-17T04:14:11;12.60;99.90
20881;DHT22;10600;53.096;8.802;2022-10-17T04:15:12;12.60;99.90
20881;DHT22;10600;53.096;8.802;2022-10-17T04:16:15;12.60;99.90
20881;DHT22;10600;53.096;8.802;2022-10-17T04:17:16;12.60;99.90
20881;DHT22;10600;53.096;8.802;2022-10-17T04:18:17;12.60;99.90
20881;DHT22;10600;53.096;8.802;2022-10-17T04:19:17;12.60;99.90
20881;DHT22;10600;53.096;8.802;2022-10-17T04:20:18;12.60;99.90
20881;DHT22;10600;53.096;8.802;2022-10-17T04:21:19;12.60;99.90
20881;DHT22;10600;53.096;8.802;2022-10-17T04:22:19;12.60;99.90
20881;DHT22;10600;53.096;8.802;2022-10-17T04:23:20;12.60;99.90
20881;DHT22;10600;53.096;8.802;2022-10-17T04:24:21;12.60;99.90
20881;DHT22;10600;53.096;8.802;2022-10-17T04:25:22;12.60;99.90
20881;DHT22;10600;53.096;8.802;2022-10-17T04:26:23;12.60;99.90
20881;DHT22;10600;53.096;8.802;2022-10-17T04:27:23;12.60;99.90
20881;DHT22;10600;53.096;8.802;2022-10-17T04:28:25;12.60;99.90
20881;DHT22;10600;53.096;8.802;2022-10-17T04:29:26;12.60;99.90
20881;DHT22;10600;53.096;8.802;2022-10-17T04:30:27;12.60;99.90
20881;DHT22;10600;53.096;8.802;2022-10-17T04:31:28;12.60;99.90
20881;DHT22;10600;53.096;8.802;2022-10-17T04:32:28;12.60;99.90
20881;DHT22;10600;53.096;8.802;2022-10-17T04:33:30;12.60;99.90
20881;DHT22;10600;53.096;8.802;2022-10-17T04:34:30;12.70;99.90
20881;DHT22;10600;53.096;8.802;2022-10-17T04:35:31;12.70;99.90
20881;DHT22;10600;53.096;8.802;2022-10-17T04:36:32;12.70;99.90
20881;DHT22;10600;53.096;8.802;2022-10-17T04:37:33;12.70;99.90
20881;DHT22;10600;53.096;8.802;2022-10-17T04:38:33;12.70;99.90
20881;DHT22;10600;53.096;8.802;2022-10-17T04:39:34;12.70;99.90
20881;DHT22;10600;53.096;8.802;2022-10-17T04:40:35;12.70;99.90
20881;DHT22;10600;53.096;8.802;2022-10-17T04:41:36;12.70;99.90
20881;DHT22;10600;53.096;8.802;2022-10-17T04:42:36;12.70;99.90
20881;DHT22;10600;53.096;8.802;2022-10-17T04:43:38;12.70;99.90
20881;DHT22;10600;53.096;8.802;2022-10-17T04:44:38;12.70;99.90
20881;DHT22;10600;53.096;8.802;2022-10-17T04:45:39;12.70;99.90
20881;DHT22;10600;53.096;8.802;2022-10-17T04:46:40;12.70;99.90
20881;DHT22;10600;53.096;8.802;2022-10-17T04:47:40;12.70;99.90
20881;DHT22;10600;53.096;8.802;2022-10-17T04:48:41;12.70;99.90
20881;DHT22;10600;53.096;8.802;2022-10-17T04:49:42;12.70;99.90
20881;DHT22;10600;53.096;8.802;2022-10-17T04:50:55;12.70;99.90
20881;DHT22;10600;53.096;8.802;2022-10-17T04:51:56;12.80;99.90
20881;DHT22;10600;53.096;8.802;2022-10-17T04:52:57;12.80;99.90
20881;DHT22;10600;53.096;8.802;2022-10-17T04:53:58;12.80;99.90
20881;DHT22;10600;53.096;8.802;2022-10-17T04:54:59;12.80;99.90
20881;DHT22;10600;53.096;8.802;2022-10-17T04:56:00;12.80;99.90
20881;DHT22;10600;53.096;8.802;2022-10-17T04:57:00;12.80;99.90
20881;DHT22;10600;53.096;8.802;2022-10-17T04:58:01;12.80;99.90
20881;DHT22;10600;53.096;8.802;2022-10-17T04:59:02;12.80;99.90
20881;DHT22;10600;53.096;8.802;2022-10-17T05:00:03;12.80;99.90
20881;DHT22;10600;53.096;8.802;2022-10-17T05:01:05;12.80;99.90
20881;DHT22;10600;53.096;8.802;2022-10-17T05:02:06;12.80;99.90
20881;DHT22;10600;53.096;8.802;2022-10-17T05:03:06;12.80;99.90
20881;DHT22;10600;53.096;8.802;2022-10-17T05:04:07;12.80;99.90
20881;DHT22;10600;53.096;8.802;2022-10-17T05:05:08;12.80;99.90
20881;DHT22;10600;53.096;8.802;2022-10-17T05:06:12;12.80;99.90
20881;DHT22;10600;53.096;8.802;2022-10-17T05:07:13;12.80;99.90
20881;DHT22;10600;53.096;8.802;2022-10-17T05:08:13;12.80;99.90
20881;DHT22;10600;53.096;8.802;2022-10-17T05:09:14;12.80;99.90
20881;DHT22;10600;53.096;8.802;2022-10-17T05:10:15;12.80;99.90
20881;DHT22;10600;53.096;8.802;2022-10-17T05:11:21;12.80;99.90
20881;DHT22;10600;53.096;8.802;2022-10-17T05:12:22;12.80;99.90
20881;DHT22;10600;53.096;8.802;2022-10-17T05:13:22;12.80;99.90
20881;DHT22;10600;53.096;8.802;2022-10-17T05:14:23;12.80;99.90
20881;DHT22;10600;53.096;8.802;2022-10-17T05:15:23;12.80;99.90
20881;DHT22;10600;53.096;8.802;2022-10-17T05:16:25;12.80;99.90
20881;DHT22;10600;53.096;8.802;2022-10-17T05:17:25;12.80;99.90
20881;DHT22;10600;53.096;8.802;2022-10-17T05:18:29;12.80;99.90
20881;DHT22;10600;53.096;8.802;2022-10-17T05:19:30;12.80;99.90
20881;DHT22;10600;53.096;8.802;2022-10-17T05:20:31;12.80;99.90
20881;DHT22;10600;53.096;8.802;2022-10-17T05:21:32;12.90;99.90
20881;DHT22;10600;53.096;8.802;2022-10-17T05:22:33;12.80;99.90
20881;DHT22;10600;53.096;8.802;2022-10-17T05:23:34;12.80;99.90
20881;DHT22;10600;53.096;8.802;2022-10-17T05:24:34;12.80;99.90
20881;DHT22;10600;53.096;8.802;2022-10-17T05:25:35;12.80;99.90
20881;DHT22;10600;53.096;8.802;2022-10-17T05:26:36;12.80;99.90
20881;DHT22;10600;53.096;8.802;2022-10-17T05:27:36;12.80;99.90
20881;DHT22;10600;53.096;8.802;2022-10-17T05:28:37;12.80;99.90
20881;DHT22;10600;53.096;8.802;2022-10-17T05:29:38;12.80;99.90
20881;DHT22;10600;53.096;8.802;2022-10-17T05:30:39;12.80;99.90
20881;DHT22;10600;53.096;8.802;2022-10-17T05:31:39;12.80;99.90
20881;DHT22;10600;53.096;8.802;2022-10-17T05:32:40;12.80;99.90
20881;DHT22;10600;53.096;8.802;2022-10-17T05:33:41;12.80;99.90
20881;DHT22;10600;53.096;8.802;2022-10-17T05:34:41;12.80;99.90
20881;DHT22;10600;53.096;8.802;2022-10-17T05:35:42;12.80;99.90
20881;DHT22;10600;53.096;8.802;2022-10-17T05:36:43;12.70;99.90
20881;DHT22;10600;53.096;8.802;2022-10-17T05:37:43;12.80;99.90
20881;DHT22;10600;53.096;8.802;2022-10-17T05:38:48;12.70;99.90
20881;DHT22;10600;53.096;8.802;2022-10-17T05:39:49;12.70;99.90
20881;DHT22;10600;53.096;8.802;2022-10-17T05:40:50;12.70;99.90
20881;DHT22;10600;53.096;8.802;2022-10-17T05:41:50;12.70;99.90
20881;DHT22;10600;53.096;8.802;2022-10-17T05:42:52;12.70;99.90
20881;DHT22;10600;53.096;8.802;2022-10-17T05:43:52;12.70;99.90
20881;DHT22;10600;53.096;8.802;2022-10-17T05:44:53;12.70;99.90
20881;DHT22;10600;53.096;8.802;2022-10-17T05:45:54;12.70;99.90
20881;DHT22;10600;53.096;8.802;2022-10-17T05:46:55;12.70;99.90
20881;DHT22;10600;53.096;8.802;2022-10-17T05:47:56;12.70;99.90
20881;DHT22;10600;53.096;8.802;2022-10-17T05:48:56;12.70;99.90
20881;DHT22;10600;53.096;8.802;2022-10-17T05:49:57;12.70;99.90
20881;DHT22;10600;53.096;8.802;2022-10-17T05:51:00;12.70;99.90
20881;DHT22;10600;53.096;8.802;2022-10-17T05:52:00;12.70;99.90
20881;DHT22;10600;53.096;8.802;2022-10-17T05:53:01;12.70;99.90
20881;DHT22;10600;53.096;8.802;2022-10-17T05:54:04;12.70;99.90
20881;DHT22;10600;53.096;8.802;2022-10-17T05:55:06;12.70;99.90
20881;DHT22;10600;53.096;8.802;2022-10-17T05:56:09;12.70;99.90
20881;DHT22;10600;53.096;8.802;2022-10-17T05:57:10;12.70;99.90
20881;DHT22;10600;53.096;8.802;2022-10-17T05:58:10;12.70;99.90
20881;DHT22;10600;53.096;8.802;2022-10-17T05:59:11;12.70;99.90
20881;DHT22;10600;53.096;8.802;2022-10-17T06:00:12;12.70;99.90
20881;DHT22;10600;53.096;8.802;2022-10-17T06:01:13;12.70;99.90
20881;DHT22;10600;53.096;8.802;2022-10-17T06:02:14;12.70;99.90
20881;DHT22;10600;53.096;8.802;2022-10-17T06:03:15;12.70;99.90
20881;DHT22;10600;53.096;8.802;2022-10-17T06:04:15;12.70;99.90
20881;DHT22;10600;53.096;8.802;2022-10-17T06:05:17;12.70;99.90
20881;DHT22;10600;53.096;8.802;2022-10-17T06:06:18;12.70;99.90
20881;DHT22;10600;53.096;8.802;2022-10-17T06:07:18;12.70;99.90
20881;DHT22;10600;53.096;8.802;2022-10-17T06:08:19;12.80;99.90
20881;DHT22;10600;53.096;8.802;2022-10-17T06:09:20;12.70;99.90
20881;DHT22;10600;53.096;8.802;2022-10-17T06:10:21;12.70;99.90
20881;DHT22;10600;53.096;8.802;2022-10-17T06:11:22;12.80;99.90
20881;DHT22;10600;53.096;8.802;2022-10-17T06:12:22;12.80;99.90
20881;DHT22;10600;53.096;8.802;2022-10-17T06:13:23;12.80;99.90
20881;DHT22;10600;53.096;8.802;2022-10-17T06:14:24;12.80;99.90
20881;DHT22;10600;53.096;8.802;2022-10-17T06:15:24;12.80;99.90
20881;DHT22;10600;53.096;8.802;2022-10-17T06:16:25;12.80;99.90
20881;DHT22;10600;53.096;8.802;2022-10-17T06:17:26;12.80;99.90
20881;DHT22;10600;53.096;8.802;2022-10-17T06:18:27;12.80;99.90
20881;DHT22;10600;53.096;8.802;2022-10-17T06:19:28;12.80;99.90
20881;DHT22;10600;53.096;8.802;2022-10-17T06:20:29;12.80;99.90
20881;DHT22;10600;53.096;8.802;2022-10-17T06:21:29;12.90;99.90
20881;DHT22;10600;53.096;8.802;2022-10-17T06:22:33;12.90;99.90
20881;DHT22;10600;53.096;8.802;2022-10-17T06:23:34;12.90;99.90
20881;DHT22;10600;53.096;8.802;2022-10-17T06:24:35;12.90;99.90
20881;DHT22;10600;53.096;8.802;2022-10-17T06:25:35;12.90;99.90
20881;DHT22;10600;53.096;8.802;2022-10-17T06:26:36;13.00;99.90
20881;DHT22;10600;53.096;8.802;2022-10-17T06:27:37;13.00;99.90
20881;DHT22;10600;53.096;8.802;2022-10-17T06:28:37;13.00;99.90
20881;DHT22;10600;53.096;8.802;2022-10-17T06:29:39;13.10;99.90
20881;DHT22;10600;53.096;8.802;2022-10-17T06:30:40;13.10;99.90
20881;DHT22;10600;53.096;8.802;2022-10-17T06:31:40;13.10;99.90
20881;DHT22;10600;53.096;8.802;2022-10-17T06:32:41;13.10;99.90
20881;DHT22;10600;53.096;8.802;2022-10-17T06:33:42;13.20;99.90
20881;DHT22;10600;53.096;8.802;2022-10-17T06:34:43;13.20;99.90
20881;DHT22;10600;53.096;8.802;2022-10-17T06:35:43;13.20;99.90
20881;DHT22;10600;53.096;8.802;2022-10-17T06:36:49;13.30;99.90
20881;DHT22;10600;53.096;8.802;2022-10-17T06:37:50;13.30;99.90
20881;DHT22;10600;53.096;8.802;2022-10-17T06:38:51;13.30;99.90
20881;DHT22;10600;53.096;8.802;2022-10-17T06:39:52;13.40;99.90
20881;DHT22;10600;53.096;8.802;2022-10-17T06:40:53;13.40;99.90
20881;DHT22;10600;53.096;8.802;2022-10-17T06:41:53;13.40;99.90
20881;DHT22;10600;53.096;8.802;2022-10-17T06:42:55;13.50;99.90
20881;DHT22;10600;53.096;8.802;2022-10-17T06:43:55;13.50;99.90
20881;DHT22;10600;53.096;8.802;2022-10-17T06:44:56;13.50;99.90
20881;DHT22;10600;53.096;8.802;2022-10-17T06:45:57;13.60;99.90
20881;DHT22;10600;53.096;8.802;2022-10-17T06:46:58;13.60;99.90
20881;DHT22;10600;53.096;8.802;2022-10-17T06:48:01;13.70;99.90
20881;DHT22;10600;53.096;8.802;2022-10-17T06:49:02;13.70;99.90
20881;DHT22;10600;53.096;8.802;2022-10-17T06:50:04;13.70;99.90
20881;DHT22;10600;53.096;8.802;2022-10-17T06:51:06;13.70;99.90
20881;DHT22;10600;53.096;8.802;2022-10-17T06:52:09;13.80;99.90
20881;DHT22;10600;53.096;8.802;2022-10-17T06:53:10;13.80;99.90
20881;DHT22;10600;53.096;8.802;2022-10-17T06:54:10;13.80;99.90
20881;DHT22;10600;53.096;8.802;2022-10-17T06:55:11;13.80;99.90
20881;DHT22;10600;53.096;8.802;2022-10-17T06:56:12;13.90;99.90
20881;DHT22;10600;53.096;8.802;2022-10-17T06:57:13;13.90;99.90
20881;DHT22;10600;53.096;8.802;2022-10-17T06:58:14;13.90;99.90
20881;DHT22;10600;53.096;8.802;2022-10-17T06:59:14;13.90;99.90
20881;DHT22;10600;53.096;8.802;2022-10-17T07:00:15;14.00;99.90
20881;DHT22;10600;53.096;8.802;2022-10-17T07:01:16;14.00;99.90
20881;DHT22;10600;53.096;8.802;2022-10-17T07:02:16;14.10;99.90
20881;DHT22;10600;53.096;8.802;2022-10-17T07:03:17;14.10;99.90
20881;DHT22;10600;53.096;8.802;2022-10-17T07:04:18;14.10;99.90